Carlsbad, NM (88220)

11:36 AM MDT on September 26, 2016 (GMT -0600)
North Alameda st Carlsbad | | Change Station

Elev 3330 ft 32.43 °N, 104.23 °W | Updated 10 minutes ago

Overcast
Overcast
65.5 °F
Feels Like 65.5 °F
N
0.0
Wind Variable Wind from West
Gusts 5.0 mph

Today
High -- | Low -- °F
--% Chance of Precip.
Yesterday
High -- | Low -- °F
Precip. -- in
Pressure 30.29 in
Visibility 10.0 miles
Clouds Overcast 7500 ft
Dew Point 49 °F
Humidity 56%
Rainfall 0.02 in
Snow Depth Not available.
6:48 AM 6:47 PM
Waning Crescent, 17% visible
METAR KCNM 261653Z AUTO 30005KT 10SM OVC075 17/09 A3039 RMK AO2 SLP257 T01670089
Pressure 30.29 in
Visibility 10.0 miles
Clouds Overcast 7500 ft
Dew Point 49 °F
Humidity 56%
Rainfall 0.02 in
Snow Depth Not available.
6:48 AM 6:47 PM
Waning Crescent, 17% visible
METAR KCNM 261653Z AUTO 30005KT 10SM OVC075 17/09 A3039 RMK AO2 SLP257 T01670089

10-Day Weather Forecast

Almanac

Astronomy

Sep. 26, 2016 Rise Set
Actual Time
Civil Twilight
Nautical Twilight
Astronomical Twilight
Moon
Length of Visible Light
Length of Day
Tomorrow will be .
, % of the Moon is Illuminated

Today's Extremes

State Highs State Lows

Community

WunderPhotos

Upload Photos

1,941,936 photos uploaded!

WunderBlog® & News

Nearby

Air Quality

  Air Quality AQ Index Pollutant
Not available.

Snow Depth

Station Depth Elevation

Earthquake Activity

City Distance Mag. Time & Date
Minimum magnitude displayed is 2.5.

Coastal Water Temperatures

Place Temperature

Stations

Nearby Weather Stations

Station Location Temp. Windchill Dew Point Humidity Wind Precip. Elev Updated Type
                   

Watches & Warnings

There are currently no watches in effect.